Airfield :
LOGIN :

Register | Disclaimer

   EN    FR    IT 

 










Legend :    VFR   Marginal VFR   IFR   Intensive IFR   Very Intensive IFR
Visi :
Ceiling :
>= 8 km
>= 3000ft
5 to 8 km
1000 to 3000 ft
1500m to 5 km
500 to 1000 ft
800 to 1500m
200 to 500 ft
< 800m
< 200 ft
Symbols :   Thunderstorms  Fog  Heavy snow  Heavy precipitations  Wind > 20 kt
SIGMETs :     Misc.  Thunderstorms  Icing  Turbulence  Mountain Waves  Volcanic Ashes







- Airport Elevation : 1020 ft
- IATA code : ILZ


LZZI - Žilina

CURRENT METAR :
  • 120700Z VRB02KT 6000 BKN003 M00/M01 Q1016

EXPIRED METARs :
  • 120630Z 20002KT 6000 BKN003 M00/M01 Q1016
  • 120600Z 27003KT 240V300 5000 BR BKN003 M00/M01 Q1015
  • 120530Z VRB02KT 6000 BKN002 OVC026 M00/M01 Q1015
  • 120500Z 26002KT 6000 BKN003 OVC030 M00/M01 Q1015
  • 120430Z 27003KT 5000 BR OVC002 M00/M01 Q1015

TAF TAF LZZI
Valid from the 12 at 06:00 until the 12 at 15:00 UTC


120500Z 1206/1215 VRB02KT 5000 BR SCT002 OVC007
TEMPO 1206/1208 2100 BR BKN003
PROB40
TEMPO 1206/1207 0700 FZFG OVC002
BECMG 1210/1212 04005KT 9999 BKN021
No reported NOTAMs for that airfield.



MET'MAP, your aeronautical weather chart ! - Copyright ORBIFLY December 2007 - Disclaimer

ORBIFLY MET'MAP TEAM :

Programming & Development : Alexandra Zaïnal
Concept & Development : Baudouin d'Aumeries
Co-Development & Prog : Marc-Olivier Méhu
Technical & hardware support : Manuel Goepfert

Contact : metmap@orbifly.com




SOURCES & CREDITS :

   NOAA